Time;durP1;ratioP1;P1;durP2;ratioP2;P2;SDS_P1;SDS_P2;PMS_P1;PMS_P2;Temp;Humidity;BMP_temperature;BMP_pressure;BME280_temperature;BME280_humidity;BME280_pressure;Samples;Min_cycle;Max_cycle;Signal;HPM_P1;HPM_P2
2023/12/27 00:00:51;;;;;;;15.55;8.73;;;4.20;99.90;;;;;;4960942;28;20026;-75
2023/12/27 00:03:17;;;;;;;15.55;7.68;;;4.20;99.90;;;;;;4973246;28;20035;-73
2023/12/27 00:05:43;;;;;;;14.48;8.65;;;4.20;99.90;;;;;;4959793;28;20042;-74
2023/12/27 00:08:10;;;;;;;14.75;8.35;;;4.20;99.90;;;;;;4971102;28;20031;-76
2023/12/27 00:10:36;;;;;;;13.75;7.65;;;4.10;99.90;;;;;;4975743;28;20034;-75
2023/12/27 00:13:02;;;;;;;14.02;7.82;;;4.10;99.90;;;;;;4976792;28;20039;-76
2023/12/27 00:15:29;;;;;;;12.40;7.28;;;4.00;99.90;;;;;;4966958;28;20069;-73
2023/12/27 00:17:55;;;;;;;17.13;9.93;;;4.00;99.90;;;;;;4970101;28;20035;-74
2023/12/27 00:20:21;;;;;;;15.57;8.93;;;3.90;99.90;;;;;;4960064;28;20045;-77
2023/12/27 00:22:48;;;;;;;22.33;10.32;;;3.90;99.90;;;;;;4958081;28;20030;-77
2023/12/27 00:25:14;;;;;;;20.38;11.25;;;3.90;99.90;;;;;;4970563;28;20413;-77
2023/12/27 00:27:40;;;;;;;23.08;14.38;;;3.90;99.90;;;;;;4975193;28;20061;-73
2023/12/27 00:30:08;;;;;;;25.15;14.70;;;3.80;99.90;;;;;;4969050;28;20034;-76
2023/12/27 00:32:35;;;;;;;29.88;16.25;;;3.80;99.90;;;;;;4974092;28;20034;-81
2023/12/27 00:35:01;;;;;;;33.13;17.27;;;3.80;99.90;;;;;;4974839;28;20030;-77
2023/12/27 00:37:27;;;;;;;30.13;17.48;;;3.80;99.90;;;;;;4958234;28;20026;-75
2023/12/27 00:39:54;;;;;;;31.73;16.60;;;3.80;99.90;;;;;;4990984;28;20045;-76
2023/12/27 00:42:21;;;;;;;27.45;15.20;;;3.70;99.90;;;;;;4988538;28;20046;-77
2023/12/27 00:44:50;;;;;;;22.40;13.80;;;3.70;99.90;;;;;;4942780;28;20478;-77
2023/12/27 00:47:16;;;;;;;20.40;12.70;;;3.70;99.90;;;;;;4971369;28;20603;-76
2023/12/27 00:49:44;;;;;;;21.95;12.52;;;3.70;99.90;;;;;;4975604;28;20049;-77
2023/12/27 00:52:10;;;;;;;19.70;12.40;;;3.70;99.90;;;;;;4943555;28;20394;-74
2023/12/27 00:54:37;;;;;;;21.08;12.02;;;3.70;99.90;;;;;;4946295;28;20042;-77
2023/12/27 00:57:03;;;;;;;22.63;12.45;;;3.70;99.90;;;;;;4958037;28;20425;-77
2023/12/27 00:59:30;;;;;;;22.33;11.27;;;3.70;99.90;;;;;;4956558;28;20433;-75
2023/12/27 01:01:56;;;;;;;15.07;10.32;;;3.60;99.90;;;;;;4973536;28;20038;-73
2023/12/27 01:04:22;;;;;;;17.13;10.68;;;3.60;99.90;;;;;;4974159;28;20038;-74
2023/12/27 01:06:49;;;;;;;14.48;9.95;;;3.60;99.90;;;;;;4956505;28;20310;-76
2023/12/27 01:09:15;;;;;;;17.33;9.60;;;3.60;99.90;;;;;;4964482;28;20030;-75
2023/12/27 01:11:41;;;;;;;15.95;9.65;;;3.60;99.90;;;;;;4978097;28;20038;-77
2023/12/27 01:14:08;;;;;;;17.15;10.35;;;3.60;99.90;;;;;;4960955;28;20041;-76
2023/12/27 01:16:34;;;;;;;20.85;10.23;;;3.50;99.90;;;;;;4971729;28;20069;-75
2023/12/27 01:19:00;;;;;;;16.45;9.32;;;3.50;99.90;;;;;;4989095;28;20510;-76
2023/12/27 01:21:27;;;;;;;19.60;11.23;;;3.50;99.90;;;;;;4975732;28;20030;-77
2023/12/27 01:23:53;;;;;;;17.75;11.05;;;3.50;99.90;;;;;;4956611;28;20026;-75
2023/12/27 01:26:19;;;;;;;19.73;10.40;;;3.50;99.90;;;;;;4971794;28;20038;-75
2023/12/27 01:28:46;;;;;;;21.52;10.27;;;3.50;99.90;;;;;;4975593;28;20034;-75
2023/12/27 01:31:12;;;;;;;18.48;10.23;;;3.60;99.90;;;;;;4957701;28;20888;-77
2023/12/27 01:33:40;;;;;;;17.00;11.05;;;3.50;99.90;;;;;;4972417;28;20034;-78
2023/12/27 01:36:07;;;;;;;18.63;10.80;;;3.50;99.90;;;;;;4969453;28;20035;-77
2023/12/27 01:38:34;;;;;;;17.52;10.77;;;3.60;99.90;;;;;;4973752;28;20965;-76
2023/12/27 01:41:00;;;;;;;21.23;12.48;;;3.60;99.90;;;;;;4957022;28;20573;-77
2023/12/27 01:43:28;;;;;;;19.02;11.48;;;3.60;99.90;;;;;;4962324;28;20033;-76
2023/12/27 01:45:55;;;;;;;21.60;12.05;;;3.70;99.90;;;;;;4989220;28;20049;-76
2023/12/27 01:48:22;;;;;;;21.02;12.13;;;3.80;99.90;;;;;;4955101;28;20513;-77
2023/12/27 01:50:49;;;;;;;23.33;12.38;;;3.80;99.90;;;;;;4970041;28;20038;-76
2023/12/27 01:53:17;;;;;;;24.67;12.85;;;3.80;99.90;;;;;;4968374;28;20030;-75
2023/12/27 01:55:45;;;;;;;21.98;12.48;;;3.80;99.90;;;;;;4969228;28;20042;-76
2023/12/27 01:58:12;;;;;;;20.30;11.95;;;3.90;99.90;;;;;;4968705;28;20045;-76
2023/12/27 02:00:42;;;;;;;22.15;11.70;;;3.90;99.90;;;;;;4940549;28;20039;-72
2023/12/27 02:03:09;;;;;;;24.15;12.85;;;3.90;99.90;;;;;;4953411;28;20041;-76
2023/12/27 02:05:36;;;;;;;23.02;12.32;;;3.90;99.90;;;;;;4967944;28;20062;-77
2023/12/27 02:08:03;;;;;;;20.08;12.90;;;3.90;99.90;;;;;;4955921;28;20041;-77
2023/12/27 02:10:30;;;;;;;19.60;11.82;;;3.90;99.90;;;;;;4960293;28;20043;-76
2023/12/27 02:12:56;;;;;;;18.90;12.02;;;3.90;99.90;;;;;;4958365;28;20046;-76
2023/12/27 02:15:22;;;;;;;19.13;12.13;;;4.00;99.90;;;;;;4975533;28;20038;-77
2023/12/27 02:17:51;;;;;;;24.05;12.30;;;4.00;99.90;;;;;;4957203;28;20046;-75
2023/12/27 02:20:18;;;;;;;21.58;12.55;;;4.00;99.90;;;;;;4990118;28;20053;-76
2023/12/27 02:22:48;;;;;;;16.40;11.18;;;4.00;99.90;;;;;;4991757;28;20527;-74
2023/12/27 02:25:14;;;;;;;22.15;12.05;;;4.00;99.90;;;;;;4972643;28;20038;-77
2023/12/27 02:27:41;;;;;;;18.10;11.52;;;3.90;99.90;;;;;;4957777;28;20038;-77
2023/12/27 02:30:15;;;;;;;20.42;11.55;;;4.00;99.90;;;;;;4975339;28;20394;-77
2023/12/27 02:32:42;;;;;;;21.85;12.27;;;3.90;99.90;;;;;;4967837;28;20041;-76
2023/12/27 02:35:09;;;;;;;16.35;10.40;;;3.90;99.90;;;;;;4960173;28;20041;-77
2023/12/27 02:37:35;;;;;;;16.85;11.13;;;3.90;99.90;;;;;;4978753;28;20054;-76
2023/12/27 02:40:03;;;;;;;18.58;11.27;;;3.90;99.90;;;;;;4967978;28;20045;-76
2023/12/27 02:42:30;;;;;;;19.27;11.65;;;3.90;99.90;;;;;;4978603;28;20043;-77
2023/12/27 02:44:56;;;;;;;18.08;11.73;;;3.90;99.90;;;;;;4991016;28;20433;-76
2023/12/27 02:47:23;;;;;;;20.90;12.10;;;3.80;99.90;;;;;;4976601;28;20050;-76
2023/12/27 02:49:49;;;;;;;16.50;10.65;;;3.80;99.90;;;;;;4978875;28;20053;-77
2023/12/27 02:52:16;;;;;;;23.63;13.43;;;3.80;99.90;;;;;;4962923;28;20474;-78
2023/12/27 02:54:42;;;;;;;17.83;10.93;;;3.80;99.90;;;;;;4962464;28;20038;-77
2023/12/27 02:57:08;;;;;;;20.38;11.13;;;3.80;99.90;;;;;;4992199;28;20045;-77
2023/12/27 02:59:35;;;;;;;15.80;10.73;;;3.80;99.90;;;;;;4989740;28;20031;-78
2023/12/27 03:02:01;;;;;;;20.27;11.05;;;3.80;99.90;;;;;;4972100;28;20040;-77
2023/12/27 03:04:27;;;;;;;20.02;11.02;;;3.80;99.90;;;;;;4973655;28;20389;-77
2023/12/27 03:06:54;;;;;;;17.80;11.73;;;3.90;99.90;;;;;;4961728;28;20035;-78
2023/12/27 03:09:20;;;;;;;23.63;12.48;;;3.90;99.90;;;;;;4976439;28;20042;-75
2023/12/27 03:11:46;;;;;;;22.30;13.30;;;3.90;99.90;;;;;;4973539;28;20030;-77
2023/12/27 03:14:14;;;;;;;23.30;12.55;;;4.00;99.90;;;;;;4989106;28;20955;-77
2023/12/27 03:16:40;;;;;;;22.38;12.13;;;4.00;99.90;;;;;;4960015;28;20030;-74
2023/12/27 03:19:06;;;;;;;25.73;13.40;;;4.00;99.90;;;;;;4972932;28;20042;-76
2023/12/27 03:21:33;;;;;;;20.95;12.93;;;4.00;99.90;;;;;;4937992;28;20053;-74
2023/12/27 03:24:01;;;;;;;23.95;14.15;;;4.10;99.90;;;;;;4961648;28;20046;-77
2023/12/27 03:26:27;;;;;;;22.80;13.00;;;4.10;99.90;;;;;;4973865;28;20043;-74
2023/12/27 03:28:53;;;;;;;20.75;13.95;;;4.10;99.90;;;;;;4975791;28;20042;-76
2023/12/27 03:31:20;;;;;;;22.00;14.68;;;4.10;99.90;;;;;;4954845;28;20470;-74
2023/12/27 03:33:46;;;;;;;26.65;14.32;;;4.20;99.90;;;;;;4979282;28;20524;-75
2023/12/27 03:36:13;;;;;;;25.10;14.45;;;4.20;99.90;;;;;;4976543;28;20034;-74
2023/12/27 03:38:40;;;;;;;24.38;14.48;;;4.20;99.90;;;;;;4973061;28;20041;-76
2023/12/27 03:41:09;;;;;;;26.60;14.70;;;4.30;99.90;;;;;;4972288;28;20041;-74
2023/12/27 03:43:35;;;;;;;26.30;15.45;;;4.30;99.90;;;;;;4959666;28;20034;-77
2023/12/27 03:46:02;;;;;;;26.75;14.65;;;4.40;99.90;;;;;;4971936;28;20045;-76
2023/12/27 03:48:29;;;;;;;27.50;14.40;;;4.40;99.90;;;;;;4988489;28;20076;-76
2023/12/27 03:50:55;;;;;;;26.10;14.48;;;4.40;99.90;;;;;;4991983;28;20402;-76
2023/12/27 03:53:21;;;;;;;25.17;13.70;;;4.40;99.90;;;;;;4975256;28;20394;-78
2023/12/27 03:55:48;;;;;;;29.23;15.57;;;4.40;99.90;;;;;;4960507;28;20037;-76
2023/12/27 03:58:14;;;;;;;27.67;15.27;;;4.50;99.90;;;;;;4975278;28;20039;-76
2023/12/27 04:00:40;;;;;;;26.58;15.43;;;4.50;99.90;;;;;;4990253;28;20034;-76
2023/12/27 04:03:08;;;;;;;23.05;14.95;;;4.50;99.90;;;;;;4975346;28;20038;-76
2023/12/27 04:05:34;;;;;;;24.33;15.00;;;4.50;99.90;;;;;;4957414;28;20043;-76
2023/12/27 04:08:01;;;;;;;29.25;16.50;;;4.50;99.90;;;;;;4973860;28;20051;-75
2023/12/27 04:10:31;;;;;;;27.05;16.50;;;4.50;99.90;;;;;;4966412;28;20030;-75
2023/12/27 04:12:58;;;;;;;27.90;14.85;;;4.50;99.90;;;;;;4987051;28;20444;-76
2023/12/27 04:15:25;;;;;;;28.65;15.32;;;4.50;99.90;;;;;;4972062;28;20398;-76
2023/12/27 04:17:51;;;;;;;25.45;15.65;;;4.50;99.90;;;;;;4987020;28;20034;-76
2023/12/27 04:20:18;;;;;;;31.95;17.75;;;4.50;99.90;;;;;;4958794;28;20363;-77
2023/12/27 04:22:44;;;;;;;35.97;20.23;;;4.50;99.90;;;;;;4975347;28;20425;-77
2023/12/27 04:25:10;;;;;;;32.35;19.52;;;4.60;99.90;;;;;;4943614;28;20039;-76
2023/12/27 04:27:38;;;;;;;28.55;18.20;;;4.60;99.90;;;;;;4966596;28;20485;-77
2023/12/27 04:30:05;;;;;;;34.03;19.92;;;4.50;99.90;;;;;;4977102;28;20022;-74
2023/12/27 04:32:32;;;;;;;33.45;17.83;;;4.60;99.90;;;;;;4978503;28;20037;-76
2023/12/27 04:34:58;;;;;;;36.65;19.10;;;4.60;99.90;;;;;;4977110;28;20030;-77
2023/12/27 04:37:25;;;;;;;35.47;19.30;;;4.60;99.90;;;;;;4971818;28;20061;-77
2023/12/27 04:39:51;;;;;;;33.75;19.02;;;4.60;99.90;;;;;;4959373;28;20030;-73
2023/12/27 04:42:18;;;;;;;36.40;19.45;;;4.70;99.90;;;;;;4972823;28;20038;-76
2023/12/27 04:44:46;;;;;;;32.53;18.45;;;4.70;99.90;;;;;;4974937;28;20034;-77
2023/12/27 04:47:13;;;;;;;34.45;18.50;;;4.70;99.90;;;;;;4969579;28;20402;-77
2023/12/27 04:49:39;;;;;;;50.65;25.17;;;4.70;99.90;;;;;;4973982;28;20685;-77
2023/12/27 04:52:05;;;;;;;37.85;21.95;;;4.70;99.90;;;;;;4958201;28;20069;-77
2023/12/27 04:54:32;;;;;;;47.58;24.38;;;4.80;99.90;;;;;;4970460;28;20034;-77
2023/12/27 04:56:58;;;;;;;40.17;21.90;;;4.80;99.90;;;;;;4976059;28;20042;-76
2023/12/27 04:59:24;;;;;;;41.17;23.70;;;4.80;99.90;;;;;;4966923;28;20483;-74
2023/12/27 05:01:53;;;;;;;49.05;25.98;;;4.90;99.90;;;;;;4972780;28;20038;-76
2023/12/27 05:04:21;;;;;;;70.05;33.78;;;4.90;99.90;;;;;;4959215;28;20406;-76
2023/12/27 05:06:48;;;;;;;53.30;29.58;;;4.90;99.90;;;;;;4969207;28;20038;-77
2023/12/27 05:09:16;;;;;;;56.38;30.98;;;4.90;99.90;;;;;;4959860;28;20393;-77
2023/12/27 05:11:43;;;;;;;56.22;29.25;;;4.90;99.90;;;;;;4961381;28;20050;-76
2023/12/27 05:14:09;;;;;;;46.65;27.38;;;4.90;99.90;;;;;;4970321;28;20034;-76
2023/12/27 05:16:35;;;;;;;49.38;25.33;;;5.00;99.90;;;;;;4975417;28;20045;-77
2023/12/27 05:19:03;;;;;;;54.03;31.27;;;5.00;99.90;;;;;;4976209;28;20038;-77
2023/12/27 05:21:29;;;;;;;48.58;30.80;;;5.00;99.90;;;;;;4961559;28;20042;-74
2023/12/27 05:23:56;;;;;;;47.38;28.23;;;5.00;99.90;;;;;;4961493;28;20039;-78
2023/12/27 05:26:22;;;;;;;53.08;30.83;;;5.00;99.90;;;;;;4957939;28;20491;-78
2023/12/27 05:28:49;;;;;;;58.60;33.47;;;5.00;99.90;;;;;;4976439;28;20042;-77
2023/12/27 05:31:15;;;;;;;51.10;30.25;;;5.10;99.90;;;;;;4984192;28;20034;-77
2023/12/27 05:33:41;;;;;;;56.75;28.65;;;5.10;99.90;;;;;;4972164;28;20034;-76
2023/12/27 05:36:07;;;;;;;52.25;27.35;;;5.10;99.90;;;;;;4942074;28;20038;-77
2023/12/27 05:38:35;;;;;;;43.63;26.15;;;5.10;99.90;;;;;;4949250;28;20039;-76
2023/12/27 05:41:01;;;;;;;43.47;26.92;;;5.10;99.90;;;;;;4988417;28;20041;-76
2023/12/27 05:43:28;;;;;;;49.40;26.85;;;5.10;99.90;;;;;;4975600;28;20034;-76
2023/12/27 05:45:54;;;;;;;47.17;26.25;;;5.10;99.90;;;;;;4972549;28;20045;-77
2023/12/27 05:48:20;;;;;;;52.80;30.40;;;5.10;99.90;;;;;;4974552;28;20050;-76
2023/12/27 05:50:46;;;;;;;54.60;30.02;;;5.10;99.90;;;;;;4975952;28;20473;-76
2023/12/27 05:53:13;;;;;;;57.20;29.50;;;5.10;99.90;;;;;;4979046;28;20037;-76
2023/12/27 05:55:39;;;;;;;49.63;25.90;;;5.10;99.90;;;;;;4972627;28;20029;-74
2023/12/27 05:58:05;;;;;;;44.20;23.55;;;5.10;99.90;;;;;;4987088;28;20042;-77
2023/12/27 06:00:32;;;;;;;50.53;26.70;;;5.20;99.90;;;;;;4973904;28;20033;-76
2023/12/27 06:02:58;;;;;;;52.03;25.08;;;5.20;99.90;;;;;;4970441;28;20474;-77
2023/12/27 06:05:25;;;;;;;42.38;24.27;;;5.20;99.90;;;;;;4989367;28;20520;-77
2023/12/27 06:07:52;;;;;;;40.92;24.17;;;5.20;99.90;;;;;;4986770;28;20049;-74
2023/12/27 06:10:18;;;;;;;48.63;26.50;;;5.20;99.90;;;;;;4961989;28;20042;-76
2023/12/27 06:12:44;;;;;;;51.97;25.85;;;5.20;99.90;;;;;;4976152;28;20520;-76
2023/12/27 06:15:11;;;;;;;44.70;24.23;;;5.20;99.90;;;;;;4961362;28;20042;-76
2023/12/27 06:17:37;;;;;;;39.75;21.77;;;5.20;99.90;;;;;;4962902;28;20057;-73
2023/12/27 06:20:06;;;;;;;43.13;22.85;;;5.20;99.90;;;;;;4958122;28;20041;-76
2023/12/27 06:22:33;;;;;;;51.55;28.33;;;5.20;99.90;;;;;;4979226;28;20042;-76
2023/12/27 06:25:00;;;;;;;39.92;23.80;;;5.20;99.90;;;;;;4977715;28;20034;-76
2023/12/27 06:27:26;;;;;;;48.00;24.67;;;5.30;99.90;;;;;;4977289;28;20410;-77
2023/12/27 06:29:54;;;;;;;44.83;24.67;;;5.30;99.90;;;;;;4958832;28;20042;-75
2023/12/27 06:32:20;;;;;;;50.08;25.70;;;5.30;99.90;;;;;;4973323;28;20470;-74
2023/12/27 06:34:46;;;;;;;52.10;26.20;;;5.30;99.90;;;;;;4974048;28;20038;-76
2023/12/27 06:37:12;;;;;;;63.13;27.35;;;5.30;99.90;;;;;;4973230;28;20045;-76
2023/12/27 06:39:39;;;;;;;53.65;28.05;;;5.30;99.90;;;;;;4977991;28;20030;-76
2023/12/27 06:42:05;;;;;;;44.65;25.95;;;5.40;99.90;;;;;;4976467;28;20037;-77
2023/12/27 06:44:31;;;;;;;46.90;26.35;;;5.40;99.90;;;;;;4991649;28;20034;-78
2023/12/27 06:46:58;;;;;;;53.38;27.85;;;5.40;99.90;;;;;;4963158;28;20050;-77
2023/12/27 06:49:24;;;;;;;52.83;26.27;;;5.40;99.90;;;;;;4978193;28;20051;-78
2023/12/27 06:51:51;;;;;;;53.42;27.88;;;5.50;99.90;;;;;;4975674;28;20316;-77
2023/12/27 06:54:17;;;;;;;60.78;28.45;;;5.40;99.90;;;;;;4978690;28;20030;-77
2023/12/27 06:56:43;;;;;;;52.53;27.50;;;5.50;99.90;;;;;;4995992;28;20026;-75
2023/12/27 06:59:10;;;;;;;62.53;28.60;;;5.40;99.90;;;;;;4975069;28;20030;-77
2023/12/27 07:01:36;;;;;;;53.90;26.95;;;5.50;99.90;;;;;;4987115;28;20030;-76
2023/12/27 07:04:03;;;;;;;55.92;27.50;;;5.50;99.90;;;;;;4977035;28;20041;-77
2023/12/27 07:06:29;;;;;;;56.15;29.63;;;5.50;99.90;;;;;;4969929;28;20039;-77
2023/12/27 07:08:55;;;;;;;60.58;27.58;;;5.50;99.90;;;;;;4961102;28;20402;-74
2023/12/27 07:11:22;;;;;;;54.60;25.83;;;5.50;99.90;;;;;;4949780;28;20038;-78
2023/12/27 07:13:48;;;;;;;51.55;25.90;;;5.50;99.90;;;;;;4972310;28;20043;-78
2023/12/27 07:16:15;;;;;;;63.75;28.60;;;5.50;99.90;;;;;;4978153;28;20031;-79
2023/12/27 07:18:41;;;;;;;45.92;25.58;;;5.50;99.90;;;;;;4967712;28;20324;-77
2023/12/27 07:21:08;;;;;;;65.07;28.48;;;5.50;99.90;;;;;;4973869;28;20483;-77
2023/12/27 07:23:34;;;;;;;48.28;24.90;;;5.60;99.90;;;;;;4980061;28;20053;-77
2023/12/27 07:26:01;;;;;;;56.25;26.20;;;5.50;99.90;;;;;;4968091;28;20513;-76
2023/12/27 07:28:27;;;;;;;49.47;25.40;;;5.60;99.90;;;;;;4978143;28;20037;-78
2023/12/27 07:30:54;;;;;;;40.60;22.77;;;5.60;99.90;;;;;;4952400;28;20042;-75
2023/12/27 07:33:20;;;;;;;55.70;25.30;;;5.60;99.90;;;;;;4974505;28;20034;-77
2023/12/27 07:35:48;;;;;;;50.97;24.23;;;5.60;99.90;;;;;;4988526;28;20490;-75
2023/12/27 07:38:14;;;;;;;51.17;23.70;;;5.60;99.90;;;;;;4976228;28;20251;-79
2023/12/27 07:40:42;;;;;;;53.80;26.60;;;5.60;99.90;;;;;;4975445;28;20034;-76
2023/12/27 07:43:09;;;;;;;59.00;28.92;;;5.60;99.90;;;;;;4959864;28;20026;-79
2023/12/27 07:45:36;;;;;;;62.17;32.40;;;5.60;99.90;;;;;;4978080;28;20397;-78
2023/12/27 07:48:03;;;;;;;60.33;31.20;;;5.60;99.90;;;;;;4974795;28;20046;-78
2023/12/27 07:50:29;;;;;;;48.88;25.23;;;5.60;99.90;;;;;;4950395;28;20034;-78
2023/12/27 07:52:55;;;;;;;46.85;23.42;;;5.60;99.90;;;;;;4961891;28;20027;-79
2023/12/27 07:55:22;;;;;;;48.88;22.38;;;5.70;99.90;;;;;;4976099;28;20030;-79
2023/12/27 07:57:48;;;;;;;49.03;21.65;;;5.70;99.90;;;;;;4953343;28;20482;-75
2023/12/27 08:00:15;;;;;;;44.40;21.70;;;5.60;99.90;;;;;;4989057;28;20030;-77
2023/12/27 08:02:42;;;;;;;56.10;24.40;;;5.70;99.90;;;;;;4976093;28;20030;-78
2023/12/27 08:05:09;;;;;;;52.67;24.20;;;5.70;99.90;;;;;;4974061;28;20041;-77
2023/12/27 08:07:35;;;;;;;41.58;20.15;;;5.70;99.90;;;;;;4989927;28;20481;-76
2023/12/27 08:10:02;;;;;;;43.13;21.92;;;5.70;99.90;;;;;;4986185;28;20393;-80
2023/12/27 08:12:28;;;;;;;41.03;20.75;;;5.70;99.90;;;;;;4957788;28;20037;-80
2023/12/27 08:14:55;;;;;;;48.13;21.98;;;5.70;99.90;;;;;;4972655;28;20394;-81
2023/12/27 08:17:22;;;;;;;37.95;18.63;;;5.80;99.90;;;;;;4991877;28;20061;-78
2023/12/27 08:19:48;;;;;;;44.97;21.98;;;5.80;99.90;;;;;;4972143;28;20393;-83
2023/12/27 08:22:14;;;;;;;44.25;20.27;;;5.80;99.90;;;;;;4989862;28;20114;-81
2023/12/27 08:24:41;;;;;;;38.25;18.88;;;5.80;99.90;;;;;;4975102;28;20037;-81
2023/12/27 08:27:07;;;;;;;44.67;20.88;;;5.80;99.90;;;;;;4973559;28;20026;-83
2023/12/27 08:29:34;;;;;;;38.08;19.33;;;5.80;99.90;;;;;;4971935;28;20062;-76
2023/12/27 08:32:00;;;;;;;42.30;19.75;;;5.90;99.90;;;;;;4985443;28;20742;-82
2023/12/27 08:34:27;;;;;;;38.05;19.42;;;5.90;99.90;;;;;;4957586;28;20779;-81
2023/12/27 08:36:53;;;;;;;38.08;20.48;;;5.90;99.90;;;;;;4989713;28;20490;-81
2023/12/27 08:39:20;;;;;;;48.97;22.30;;;5.90;99.90;;;;;;4971158;28;20038;-82
2023/12/27 08:41:46;;;;;;;36.78;20.73;;;5.90;99.90;;;;;;4976908;28;20054;-82
2023/12/27 08:44:13;;;;;;;74.32;29.65;;;5.90;99.90;;;;;;4974424;28;20462;-80
2023/12/27 08:46:39;;;;;;;39.33;22.55;;;5.90;99.90;;;;;;4990419;28;20045;-84
2023/12/27 08:49:06;;;;;;;44.10;23.08;;;5.90;99.90;;;;;;4973862;28;20057;-84
2023/12/27 08:51:33;;;;;;;46.50;24.17;;;5.90;99.90;;;;;;4959676;28;20030;-83
2023/12/27 08:53:59;;;;;;;47.28;24.15;;;6.00;99.90;;;;;;4985405;28;20030;-84
2023/12/27 08:56:25;;;;;;;46.20;24.02;;;6.00;99.90;;;;;;4958863;28;20050;-81
2023/12/27 08:58:52;;;;;;;50.25;27.60;;;6.00;99.90;;;;;;4972431;28;20034;-82
2023/12/27 09:01:18;;;;;;;52.33;28.15;;;6.10;99.90;;;;;;4974434;28;20045;-78
2023/12/27 09:03:45;;;;;;;49.70;26.60;;;6.10;99.90;;;;;;4952199;28;21217;-83
2023/12/27 09:06:12;;;;;;;56.08;29.45;;;6.10;99.90;;;;;;4973130;28;20129;-81
2023/12/27 09:08:38;;;;;;;52.67;28.80;;;6.10;99.90;;;;;;4958919;28;20417;-81
2023/12/27 09:11:05;;;;;;;53.05;27.83;;;6.10;99.90;;;;;;4987619;28;20041;-78
2023/12/27 09:13:31;;;;;;;58.05;28.63;;;6.10;99.90;;;;;;4974126;28;20042;-81
2023/12/27 09:15:58;;;;;;;43.92;25.70;;;6.20;99.90;;;;;;4956368;28;20430;-80
2023/12/27 09:18:24;;;;;;;46.63;25.85;;;6.20;99.90;;;;;;4975691;28;20386;-80
2023/12/27 09:20:51;;;;;;;48.20;25.45;;;6.30;99.90;;;;;;4942841;28;20038;-77
2023/12/27 09:23:18;;;;;;;47.08;26.40;;;6.30;99.90;;;;;;4974772;28;20038;-81
2023/12/27 09:25:44;;;;;;;42.00;23.75;;;6.30;99.90;;;;;;4973437;28;20042;-81
2023/12/27 09:28:10;;;;;;;42.63;24.10;;;6.40;99.90;;;;;;4955579;28;20039;-81
2023/12/27 09:30:38;;;;;;;46.67;24.52;;;6.40;99.90;;;;;;4959174;28;20048;-80
2023/12/27 09:33:05;;;;;;;42.72;22.35;;;6.40;99.90;;;;;;4958441;28;20038;-79
2023/12/27 09:35:31;;;;;;;44.17;24.17;;;6.50;99.90;;;;;;4961901;28;20041;-80
2023/12/27 09:37:57;;;;;;;41.10;20.90;;;6.50;99.90;;;;;;4970484;28;20031;-80
2023/12/27 09:40:24;;;;;;;35.88;20.55;;;6.50;99.90;;;;;;4964429;28;20061;-78
2023/12/27 09:42:51;;;;;;;58.40;26.73;;;6.60;99.90;;;;;;4974415;28;20027;-77
2023/12/27 09:45:20;;;;;;;45.03;24.10;;;6.60;99.90;;;;;;4983501;28;20035;-79
2023/12/27 09:47:53;;;;;;;39.58;20.63;;;6.60;99.90;;;;;;4976531;28;20027;-78
2023/12/27 09:50:20;;;;;;;42.47;21.98;;;6.60;99.90;;;;;;4954959;28;20049;-78
2023/12/27 09:52:48;;;;;;;42.67;23.80;;;6.70;99.90;;;;;;4976246;28;20018;-78
2023/12/27 09:55:14;;;;;;;49.72;24.58;;;6.70;99.90;;;;;;4989845;28;20398;-77
2023/12/27 09:57:41;;;;;;;49.25;25.45;;;6.70;99.90;;;;;;4961486;28;20039;-77
2023/12/27 10:00:12;;;;;;;45.20;25.35;;;6.80;99.90;;;;;;4945511;28;20038;-78
2023/12/27 10:02:43;;;;;;;59.22;29.23;;;6.80;99.90;;;;;;4976158;28;20385;-77
2023/12/27 10:05:22;;;;;;;52.87;25.77;;;6.80;99.90;;;;;;4964283;28;20486;-76
2023/12/27 10:07:50;;;;;;;52.58;29.05;;;6.90;99.90;;;;;;4979543;28;20293;-78
2023/12/27 10:10:18;;;;;;;47.17;25.08;;;6.90;99.90;;;;;;4976620;28;20034;-77
2023/12/27 10:12:44;;;;;;;56.97;27.92;;;7.00;99.90;;;;;;4962208;28;20030;-77
2023/12/27 10:15:12;;;;;;;49.17;25.60;;;7.00;99.90;;;;;;4962029;28;20761;-76
2023/12/27 10:17:38;;;;;;;37.15;20.67;;;7.10;99.90;;;;;;4976994;28;20031;-77
2023/12/27 10:20:07;;;;;;;48.22;24.50;;;7.10;99.90;;;;;;4967685;28;20057;-77
2023/12/27 10:22:33;;;;;;;51.88;26.30;;;7.20;99.90;;;;;;4989531;28;20049;-77
2023/12/27 10:25:00;;;;;;;45.42;25.60;;;7.20;99.90;;;;;;4962744;28;20038;-76
2023/12/27 10:27:29;;;;;;;60.22;29.27;;;7.20;99.90;;;;;;4979272;28;20397;-76
2023/12/27 10:29:56;;;;;;;52.67;27.42;;;7.30;99.90;;;;;;4968921;28;20540;-76
2023/12/27 10:32:25;;;;;;;56.00;28.58;;;7.30;99.90;;;;;;4961452;28;20473;-77
2023/12/27 10:34:51;;;;;;;51.50;26.55;;;7.30;99.90;;;;;;4971305;28;20051;-77
2023/12/27 10:37:18;;;;;;;47.42;27.23;;;7.40;99.90;;;;;;4960730;28;20490;-76
2023/12/27 10:39:45;;;;;;;47.22;26.90;;;7.40;99.90;;;;;;4974628;28;20022;-77
2023/12/27 10:42:13;;;;;;;48.40;25.50;;;7.50;99.90;;;;;;4975402;28;20029;-74
2023/12/27 10:44:40;;;;;;;44.85;25.23;;;7.50;99.90;;;;;;4977384;28;20065;-76
2023/12/27 10:47:11;;;;;;;39.63;21.88;;;7.50;99.90;;;;;;4974410;28;20068;-77
2023/12/27 10:49:42;;;;;;;45.33;24.13;;;7.60;99.90;;;;;;4952693;28;20057;-76
2023/12/27 10:52:09;;;;;;;39.15;22.10;;;7.60;99.90;;;;;;4977040;28;20049;-76
2023/12/27 10:54:39;;;;;;;35.95;19.95;;;7.70;99.90;;;;;;4975573;28;20494;-76
2023/12/27 10:57:08;;;;;;;44.63;22.88;;;7.70;99.90;;;;;;4963909;28;20038;-76
2023/12/27 10:59:34;;;;;;;44.95;23.85;;;7.70;99.90;;;;;;4974905;28;20027;-77
2023/12/27 11:02:02;;;;;;;51.45;25.80;;;7.70;99.90;;;;;;4976263;28;20030;-77
2023/12/27 11:04:29;;;;;;;39.65;20.95;;;7.70;99.90;;;;;;4962917;28;20045;-76
2023/12/27 11:06:56;;;;;;;53.70;25.73;;;7.80;99.90;;;;;;4965956;28;20402;-77
2023/12/27 11:09:28;;;;;;;46.70;24.10;;;7.80;99.90;;;;;;4964097;28;20046;-76
2023/12/27 11:11:56;;;;;;;39.22;21.38;;;7.80;99.90;;;;;;4978063;28;20386;-76
2023/12/27 11:14:24;;;;;;;31.25;18.08;;;7.80;99.90;;;;;;4978533;28;20031;-77
2023/12/27 11:16:54;;;;;;;39.58;19.90;;;7.90;99.90;;;;;;4974880;28;20030;-77
2023/12/27 11:19:25;;;;;;;33.88;17.50;;;7.90;99.90;;;;;;4963435;28;20041;-75
2023/12/27 11:21:52;;;;;;;36.53;19.08;;;7.90;99.90;;;;;;4977998;28;20038;-75
2023/12/27 11:24:18;;;;;;;32.53;17.08;;;7.90;99.90;;;;;;4984552;28;20034;-76
2023/12/27 11:26:45;;;;;;;30.70;16.42;;;7.90;99.90;;;;;;4977223;28;20505;-78
2023/12/27 11:29:11;;;;;;;30.77;15.77;;;8.00;99.90;;;;;;4975941;28;20034;-75
2023/12/27 11:31:42;;;;;;;35.25;17.27;;;8.00;99.90;;;;;;4968692;28;20031;-77
2023/12/27 11:34:11;;;;;;;26.67;14.18;;;8.00;99.90;;;;;;4977105;28;20034;-76
2023/12/27 11:36:37;;;;;;;32.40;15.10;;;8.00;99.90;;;;;;4975121;28;20042;-77
2023/12/27 11:39:26;;;;;;;27.98;15.48;;;8.10;99.90;;;;;;4976699;28;20073;-75
2023/12/27 11:41:53;;;;;;;30.58;15.77;;;8.10;99.90;;;;;;4943039;28;20049;-79
2023/12/27 11:44:19;;;;;;;24.42;13.52;;;8.10;99.90;;;;;;4944073;28;20034;-77
2023/12/27 11:46:46;;;;;;;28.08;13.88;;;8.10;99.90;;;;;;4972633;28;20041;-77
2023/12/27 11:49:19;;;;;;;27.92;14.63;;;8.10;99.90;;;;;;4952623;28;20405;-75
2023/12/27 11:51:46;;;;;;;27.15;14.30;;;8.10;99.90;;;;;;4968992;28;20045;-77
2023/12/27 11:54:24;;;;;;;25.42;13.38;;;8.20;99.90;;;;;;4975624;28;20038;-78
2023/12/27 11:56:54;;;;;;;23.48;11.45;;;8.20;99.90;;;;;;4976168;28;20034;-76
2023/12/27 11:59:26;;;;;;;27.60;14.43;;;8.20;99.90;;;;;;4963649;28;20037;-76
2023/12/27 12:01:53;;;;;;;26.52;13.18;;;8.20;99.90;;;;;;4977978;28;20061;-77
2023/12/27 12:04:43;;;;;;;24.02;11.70;;;8.30;99.90;;;;;;4971826;28;20508;-77
2023/12/27 12:07:36;;;;;;;28.05;12.77;;;8.30;99.90;;;;;;4991775;28;20540;-75
2023/12/27 12:10:03;;;;;;;25.60;13.00;;;8.30;99.90;;;;;;4960151;28;20694;-76
2023/12/27 12:12:30;;;;;;;25.10;11.30;;;8.30;99.90;;;;;;4974043;28;20035;-73
2023/12/27 12:14:57;;;;;;;21.30;11.07;;;8.40;99.90;;;;;;4972913;28;20034;-76
2023/12/27 12:17:23;;;;;;;25.08;12.60;;;8.40;99.90;;;;;;4991390;28;20038;-77
2023/12/27 12:19:50;;;;;;;26.15;11.15;;;8.40;99.90;;;;;;4960898;28;20030;-77
2023/12/27 12:22:17;;;;;;;23.45;12.35;;;8.40;99.90;;;;;;4966759;28;20122;-74
2023/12/27 12:24:44;;;;;;;20.00;10.30;;;8.50;99.90;;;;;;4973163;28;20030;-74
2023/12/27 12:27:14;;;;;;;22.63;11.30;;;8.50;99.90;;;;;;4959102;28;20696;-75
2023/12/27 12:29:41;;;;;;;25.48;11.90;;;8.50;99.90;;;;;;4973734;28;20042;-72
2023/12/27 12:32:07;;;;;;;21.52;10.43;;;8.50;99.90;;;;;;4976110;28;20034;-74
2023/12/27 12:34:34;;;;;;;26.23;12.32;;;8.60;99.90;;;;;;4974899;28;20042;-74
2023/12/27 12:37:00;;;;;;;25.48;12.57;;;8.60;99.90;;;;;;4992368;28;20042;-74